Terminal Aerodrome Forecast
Issued by NWS

Home | Current Version | Previous Version | Text Only | Print | Product List | Glossary On
Versions: 1 2 3 4 5 6 7 8 9 10 11 12 13 14 15 16 17 18 19 20 21 22 23 24 25
000
FTUS41 KOKX 260800 AAA
TAFHPN
TAF AMD
KHPN 260831Z 2609/2706 28006KT P6SM SKC
     FM261400 28009KT P6SM SCT020
     FM262200 26006KT P6SM SKC
     FM270400 VRB03KT P6SM SCT250
      AMD NOT SKED=

USA.gov is the U.S. government's official web portal to all federal, state and local government web resources and services.